sensor_id;sensor_type;location;lat;lon;timestamp;temperature;humidity
20463;DHT22;10390;53.566;9.980;2023-04-25T00:01:11;25.10;1.00
20463;DHT22;10390;53.566;9.980;2023-04-25T00:03:38;25.10;1.00
20463;DHT22;10390;53.566;9.980;2023-04-25T00:06:04;25.10;1.00
20463;DHT22;10390;53.566;9.980;2023-04-25T00:08:30;25.00;1.00
20463;DHT22;10390;53.566;9.980;2023-04-25T00:10:57;25.00;1.00
20463;DHT22;10390;53.566;9.980;2023-04-25T00:13:22;25.00;1.00
20463;DHT22;10390;53.566;9.980;2023-04-25T00:15:48;25.00;1.00
20463;DHT22;10390;53.566;9.980;2023-04-25T00:18:14;25.00;1.00
20463;DHT22;10390;53.566;9.980;2023-04-25T00:20:40;25.00;1.00
20463;DHT22;10390;53.566;9.980;2023-04-25T00:23:13;25.00;1.00
20463;DHT22;10390;53.566;9.980;2023-04-25T00:25:44;25.00;1.00
20463;DHT22;10390;53.566;9.980;2023-04-25T00:28:10;25.00;1.00
20463;DHT22;10390;53.566;9.980;2023-04-25T00:30:36;25.00;1.00
20463;DHT22;10390;53.566;9.980;2023-04-25T00:33:02;24.90;1.00
20463;DHT22;10390;53.566;9.980;2023-04-25T00:35:27;24.90;1.00
20463;DHT22;10390;53.566;9.980;2023-04-25T00:37:54;24.90;1.00
20463;DHT22;10390;53.566;9.980;2023-04-25T00:40:20;24.90;1.00
20463;DHT22;10390;53.566;9.980;2023-04-25T00:42:46;24.90;1.00
20463;DHT22;10390;53.566;9.980;2023-04-25T00:45:14;24.90;1.00
20463;DHT22;10390;53.566;9.980;2023-04-25T00:47:41;24.90;1.00
20463;DHT22;10390;53.566;9.980;2023-04-25T00:50:08;24.90;1.00
20463;DHT22;10390;53.566;9.980;2023-04-25T00:52:34;24.90;1.00
20463;DHT22;10390;53.566;9.980;2023-04-25T00:55:00;24.90;1.00
20463;DHT22;10390;53.566;9.980;2023-04-25T00:57:26;24.90;1.00
20463;DHT22;10390;53.566;9.980;2023-04-25T00:59:52;24.90;1.00
20463;DHT22;10390;53.566;9.980;2023-04-25T01:02:19;24.90;1.00
20463;DHT22;10390;53.566;9.980;2023-04-25T01:04:46;24.90;1.00
20463;DHT22;10390;53.566;9.980;2023-04-25T01:07:12;24.80;1.00
20463;DHT22;10390;53.566;9.980;2023-04-25T01:09:38;24.80;1.00
20463;DHT22;10390;53.566;9.980;2023-04-25T01:12:04;24.80;1.00
20463;DHT22;10390;53.566;9.980;2023-04-25T01:14:30;24.80;1.00
20463;DHT22;10390;53.566;9.980;2023-04-25T01:16:56;24.80;1.00
20463;DHT22;10390;53.566;9.980;2023-04-25T01:19:22;24.80;1.00
20463;DHT22;10390;53.566;9.980;2023-04-25T01:21:48;24.70;1.00
20463;DHT22;10390;53.566;9.980;2023-04-25T01:24:14;24.80;1.00
20463;DHT22;10390;53.566;9.980;2023-04-25T01:26:41;24.70;1.00
20463;DHT22;10390;53.566;9.980;2023-04-25T01:29:10;24.70;1.00
20463;DHT22;10390;53.566;9.980;2023-04-25T01:31:36;24.70;1.00
20463;DHT22;10390;53.566;9.980;2023-04-25T01:34:03;24.70;1.00
20463;DHT22;10390;53.566;9.980;2023-04-25T01:36:28;24.70;1.00
20463;DHT22;10390;53.566;9.980;2023-04-25T01:38:54;24.70;1.00
20463;DHT22;10390;53.566;9.980;2023-04-25T01:41:20;24.70;1.00
20463;DHT22;10390;53.566;9.980;2023-04-25T01:43:48;24.70;1.00
20463;DHT22;10390;53.566;9.980;2023-04-25T01:46:14;24.70;1.00
20463;DHT22;10390;53.566;9.980;2023-04-25T01:48:40;24.70;1.00
20463;DHT22;10390;53.566;9.980;2023-04-25T01:51:06;24.70;1.00
20463;DHT22;10390;53.566;9.980;2023-04-25T01:53:32;24.70;1.00
20463;DHT22;10390;53.566;9.980;2023-04-25T01:55:57;24.70;1.00
20463;DHT22;10390;53.566;9.980;2023-04-25T01:58:23;24.70;1.00
20463;DHT22;10390;53.566;9.980;2023-04-25T02:00:48;24.70;1.00
20463;DHT22;10390;53.566;9.980;2023-04-25T02:03:14;24.60;1.00
20463;DHT22;10390;53.566;9.980;2023-04-25T02:05:40;24.60;1.00
20463;DHT22;10390;53.566;9.980;2023-04-25T02:08:07;24.60;1.00
20463;DHT22;10390;53.566;9.980;2023-04-25T02:10:34;24.60;1.00
20463;DHT22;10390;53.566;9.980;2023-04-25T02:13:00;24.60;1.00
20463;DHT22;10390;53.566;9.980;2023-04-25T02:15:25;24.60;1.00
20463;DHT22;10390;53.566;9.980;2023-04-25T02:17:51;24.60;1.00
20463;DHT22;10390;53.566;9.980;2023-04-25T02:20:23;24.60;1.00
20463;DHT22;10390;53.566;9.980;2023-04-25T02:22:50;24.60;1.00
20463;DHT22;10390;53.566;9.980;2023-04-25T02:25:17;24.60;1.00
20463;DHT22;10390;53.566;9.980;2023-04-25T02:27:43;24.50;1.00
20463;DHT22;10390;53.566;9.980;2023-04-25T02:30:09;24.60;1.00
20463;DHT22;10390;53.566;9.980;2023-04-25T02:32:35;24.60;1.00
20463;DHT22;10390;53.566;9.980;2023-04-25T02:35:01;24.50;1.00
20463;DHT22;10390;53.566;9.980;2023-04-25T02:37:30;24.60;1.00
20463;DHT22;10390;53.566;9.980;2023-04-25T02:39:56;24.50;1.00
20463;DHT22;10390;53.566;9.980;2023-04-25T02:42:22;24.60;1.00
20463;DHT22;10390;53.566;9.980;2023-04-25T02:44:47;24.50;1.00
20463;DHT22;10390;53.566;9.980;2023-04-25T02:47:13;24.50;1.00
20463;DHT22;10390;53.566;9.980;2023-04-25T02:49:39;24.50;1.00
20463;DHT22;10390;53.566;9.980;2023-04-25T02:52:04;24.50;1.00
20463;DHT22;10390;53.566;9.980;2023-04-25T02:54:30;24.50;1.00
20463;DHT22;10390;53.566;9.980;2023-04-25T02:56:56;24.50;1.00
20463;DHT22;10390;53.566;9.980;2023-04-25T02:59:21;24.50;1.00
20463;DHT22;10390;53.566;9.980;2023-04-25T03:01:47;24.50;1.00
20463;DHT22;10390;53.566;9.980;2023-04-25T03:04:13;24.50;1.00
20463;DHT22;10390;53.566;9.980;2023-04-25T03:06:38;24.50;1.00
20463;DHT22;10390;53.566;9.980;2023-04-25T03:09:04;24.50;1.00
20463;DHT22;10390;53.566;9.980;2023-04-25T03:11:29;24.50;1.00
20463;DHT22;10390;53.566;9.980;2023-04-25T03:13:55;24.50;1.00
20463;DHT22;10390;53.566;9.980;2023-04-25T03:16:21;24.50;1.00
20463;DHT22;10390;53.566;9.980;2023-04-25T03:18:47;24.50;1.00
20463;DHT22;10390;53.566;9.980;2023-04-25T03:21:13;24.50;1.00
20463;DHT22;10390;53.566;9.980;2023-04-25T03:23:38;24.50;1.00
20463;DHT22;10390;53.566;9.980;2023-04-25T03:26:04;24.50;1.00
20463;DHT22;10390;53.566;9.980;2023-04-25T03:28:30;24.40;1.00
20463;DHT22;10390;53.566;9.980;2023-04-25T03:30:55;24.50;1.00
20463;DHT22;10390;53.566;9.980;2023-04-25T03:33:21;24.40;1.00
20463;DHT22;10390;53.566;9.980;2023-04-25T03:35:47;24.50;1.00
20463;DHT22;10390;53.566;9.980;2023-04-25T03:38:13;24.40;1.00
20463;DHT22;10390;53.566;9.980;2023-04-25T03:40:38;24.40;1.00
20463;DHT22;10390;53.566;9.980;2023-04-25T03:43:04;24.40;1.00
20463;DHT22;10390;53.566;9.980;2023-04-25T03:45:30;24.40;1.00
20463;DHT22;10390;53.566;9.980;2023-04-25T03:47:55;24.40;1.00
20463;DHT22;10390;53.566;9.980;2023-04-25T03:50:21;24.30;1.00
20463;DHT22;10390;53.566;9.980;2023-04-25T03:52:47;24.40;1.00
20463;DHT22;10390;53.566;9.980;2023-04-25T03:55:12;24.40;1.00
20463;DHT22;10390;53.566;9.980;2023-04-25T03:57:38;24.30;1.00
20463;DHT22;10390;53.566;9.980;2023-04-25T04:00:04;24.40;1.00
20463;DHT22;10390;53.566;9.980;2023-04-25T04:02:30;24.40;1.00
20463;DHT22;10390;53.566;9.980;2023-04-25T04:04:55;24.40;1.00
20463;DHT22;10390;53.566;9.980;2023-04-25T04:07:22;24.30;1.00
20463;DHT22;10390;53.566;9.980;2023-04-25T04:09:47;24.30;1.00
20463;DHT22;10390;53.566;9.980;2023-04-25T04:12:13;24.30;1.00
20463;DHT22;10390;53.566;9.980;2023-04-25T04:14:38;24.30;1.00
20463;DHT22;10390;53.566;9.980;2023-04-25T04:17:04;24.30;1.00
20463;DHT22;10390;53.566;9.980;2023-04-25T04:19:31;24.30;1.00
20463;DHT22;10390;53.566;9.980;2023-04-25T04:21:56;24.30;1.00
20463;DHT22;10390;53.566;9.980;2023-04-25T04:24:23;24.30;1.00
20463;DHT22;10390;53.566;9.980;2023-04-25T04:26:49;24.30;1.00
20463;DHT22;10390;53.566;9.980;2023-04-25T04:29:16;24.30;1.00
20463;DHT22;10390;53.566;9.980;2023-04-25T04:31:50;24.20;1.00
20463;DHT22;10390;53.566;9.980;2023-04-25T04:34:17;24.20;1.00
20463;DHT22;10390;53.566;9.980;2023-04-25T04:36:44;24.20;1.00
20463;DHT22;10390;53.566;9.980;2023-04-25T04:39:12;24.30;1.00
20463;DHT22;10390;53.566;9.980;2023-04-25T04:41:38;24.30;1.00
20463;DHT22;10390;53.566;9.980;2023-04-25T04:44:04;24.30;1.00
20463;DHT22;10390;53.566;9.980;2023-04-25T04:46:29;24.30;1.00
20463;DHT22;10390;53.566;9.980;2023-04-25T04:49:05;24.20;1.00
20463;DHT22;10390;53.566;9.980;2023-04-25T04:51:31;24.30;1.00
20463;DHT22;10390;53.566;9.980;2023-04-25T04:53:58;24.30;1.00
20463;DHT22;10390;53.566;9.980;2023-04-25T04:56:26;24.30;1.00
20463;DHT22;10390;53.566;9.980;2023-04-25T04:58:53;24.30;1.00
20463;DHT22;10390;53.566;9.980;2023-04-25T05:01:19;24.30;1.00
20463;DHT22;10390;53.566;9.980;2023-04-25T05:03:44;24.30;1.00
20463;DHT22;10390;53.566;9.980;2023-04-25T05:06:10;24.30;1.00
20463;DHT22;10390;53.566;9.980;2023-04-25T05:08:36;24.30;1.00
20463;DHT22;10390;53.566;9.980;2023-04-25T05:11:02;24.30;1.00
20463;DHT22;10390;53.566;9.980;2023-04-25T05:13:27;24.30;1.00
20463;DHT22;10390;53.566;9.980;2023-04-25T05:15:53;24.30;1.00
20463;DHT22;10390;53.566;9.980;2023-04-25T05:18:19;24.30;1.00
20463;DHT22;10390;53.566;9.980;2023-04-25T05:20:44;24.30;1.00
20463;DHT22;10390;53.566;9.980;2023-04-25T05:23:10;24.30;1.00
20463;DHT22;10390;53.566;9.980;2023-04-25T05:25:36;24.30;1.00
20463;DHT22;10390;53.566;9.980;2023-04-25T05:28:01;24.30;1.00
20463;DHT22;10390;53.566;9.980;2023-04-25T05:30:27;24.30;1.00
20463;DHT22;10390;53.566;9.980;2023-04-25T05:32:52;24.30;1.00
20463;DHT22;10390;53.566;9.980;2023-04-25T05:35:18;24.30;1.00
20463;DHT22;10390;53.566;9.980;2023-04-25T05:37:44;24.30;1.00
20463;DHT22;10390;53.566;9.980;2023-04-25T05:40:10;24.30;1.00
20463;DHT22;10390;53.566;9.980;2023-04-25T05:42:36;24.30;1.00
20463;DHT22;10390;53.566;9.980;2023-04-25T05:45:03;24.30;1.00
20463;DHT22;10390;53.566;9.980;2023-04-25T05:47:28;24.30;1.00
20463;DHT22;10390;53.566;9.980;2023-04-25T05:49:54;24.30;1.00
20463;DHT22;10390;53.566;9.980;2023-04-25T05:52:19;24.30;1.00
20463;DHT22;10390;53.566;9.980;2023-04-25T05:54:45;24.30;1.00
20463;DHT22;10390;53.566;9.980;2023-04-25T05:57:21;24.30;1.00
20463;DHT22;10390;53.566;9.980;2023-04-25T05:59:47;24.30;1.00
20463;DHT22;10390;53.566;9.980;2023-04-25T06:02:13;24.30;1.00
20463;DHT22;10390;53.566;9.980;2023-04-25T06:04:39;24.30;1.00
20463;DHT22;10390;53.566;9.980;2023-04-25T06:07:04;24.30;1.00
20463;DHT22;10390;53.566;9.980;2023-04-25T06:09:30;24.30;1.00
20463;DHT22;10390;53.566;9.980;2023-04-25T06:11:55;24.20;1.00
20463;DHT22;10390;53.566;9.980;2023-04-25T06:14:21;24.30;1.00
20463;DHT22;10390;53.566;9.980;2023-04-25T06:16:46;24.20;1.00
20463;DHT22;10390;53.566;9.980;2023-04-25T06:19:12;24.20;1.00
20463;DHT22;10390;53.566;9.980;2023-04-25T06:21:38;24.20;1.00
20463;DHT22;10390;53.566;9.980;2023-04-25T06:24:03;24.20;1.00
20463;DHT22;10390;53.566;9.980;2023-04-25T06:26:29;24.30;1.00
20463;DHT22;10390;53.566;9.980;2023-04-25T06:28:55;24.30;1.00
20463;DHT22;10390;53.566;9.980;2023-04-25T06:31:20;24.30;1.00
20463;DHT22;10390;53.566;9.980;2023-04-25T06:33:46;24.20;1.00
20463;DHT22;10390;53.566;9.980;2023-04-25T06:36:13;24.20;1.00
20463;DHT22;10390;53.566;9.980;2023-04-25T06:38:39;24.30;1.00
20463;DHT22;10390;53.566;9.980;2023-04-25T06:41:04;24.30;1.00
20463;DHT22;10390;53.566;9.980;2023-04-25T06:43:30;24.30;1.00
20463;DHT22;10390;53.566;9.980;2023-04-25T06:45:59;24.30;1.00
20463;DHT22;10390;53.566;9.980;2023-04-25T06:48:26;24.30;1.00
20463;DHT22;10390;53.566;9.980;2023-04-25T06:50:52;24.30;1.00
20463;DHT22;10390;53.566;9.980;2023-04-25T06:53:18;24.30;1.00
20463;DHT22;10390;53.566;9.980;2023-04-25T06:55:44;24.30;1.00
20463;DHT22;10390;53.566;9.980;2023-04-25T06:58:09;24.30;1.00
20463;DHT22;10390;53.566;9.980;2023-04-25T07:00:35;24.30;1.00
20463;DHT22;10390;53.566;9.980;2023-04-25T07:03:01;24.20;1.00
20463;DHT22;10390;53.566;9.980;2023-04-25T07:05:27;24.30;1.00
20463;DHT22;10390;53.566;9.980;2023-04-25T07:07:53;24.30;1.00
20463;DHT22;10390;53.566;9.980;2023-04-25T07:10:18;24.30;1.00
20463;DHT22;10390;53.566;9.980;2023-04-25T07:12:44;24.30;1.00
20463;DHT22;10390;53.566;9.980;2023-04-25T07:15:10;24.30;1.00
20463;DHT22;10390;53.566;9.980;2023-04-25T07:17:37;24.30;1.00
20463;DHT22;10390;53.566;9.980;2023-04-25T07:20:03;24.30;1.00
20463;DHT22;10390;53.566;9.980;2023-04-25T07:22:29;24.30;1.00
20463;DHT22;10390;53.566;9.980;2023-04-25T07:24:55;24.30;1.00
20463;DHT22;10390;53.566;9.980;2023-04-25T07:27:20;24.30;1.00
20463;DHT22;10390;53.566;9.980;2023-04-25T07:29:46;24.30;1.00
20463;DHT22;10390;53.566;9.980;2023-04-25T07:32:12;24.30;1.00
20463;DHT22;10390;53.566;9.980;2023-04-25T07:34:38;24.30;1.00
20463;DHT22;10390;53.566;9.980;2023-04-25T07:37:05;24.30;1.00
20463;DHT22;10390;53.566;9.980;2023-04-25T07:39:31;24.30;1.00
20463;DHT22;10390;53.566;9.980;2023-04-25T07:41:56;24.30;1.00
20463;DHT22;10390;53.566;9.980;2023-04-25T07:44:24;24.30;1.00
20463;DHT22;10390;53.566;9.980;2023-04-25T07:46:49;24.30;1.00
20463;DHT22;10390;53.566;9.980;2023-04-25T07:49:15;24.30;1.00
20463;DHT22;10390;53.566;9.980;2023-04-25T07:51:41;24.30;1.00
20463;DHT22;10390;53.566;9.980;2023-04-25T07:54:14;24.30;1.00
20463;DHT22;10390;53.566;9.980;2023-04-25T07:56:41;24.30;1.00
20463;DHT22;10390;53.566;9.980;2023-04-25T07:59:06;24.30;1.00
20463;DHT22;10390;53.566;9.980;2023-04-25T08:01:34;24.30;1.00
20463;DHT22;10390;53.566;9.980;2023-04-25T08:03:59;24.30;1.00
20463;DHT22;10390;53.566;9.980;2023-04-25T08:06:25;24.30;1.00
20463;DHT22;10390;53.566;9.980;2023-04-25T08:08:51;24.30;1.00
20463;DHT22;10390;53.566;9.980;2023-04-25T08:11:16;24.30;1.00
20463;DHT22;10390;53.566;9.980;2023-04-25T08:13:42;24.30;1.00
20463;DHT22;10390;53.566;9.980;2023-04-25T08:16:08;24.30;1.00
20463;DHT22;10390;53.566;9.980;2023-04-25T08:18:33;24.30;1.00
20463;DHT22;10390;53.566;9.980;2023-04-25T08:20:59;24.30;1.00
20463;DHT22;10390;53.566;9.980;2023-04-25T08:23:25;24.30;1.00
20463;DHT22;10390;53.566;9.980;2023-04-25T08:25:50;24.30;1.00
20463;DHT22;10390;53.566;9.980;2023-04-25T08:28:16;24.30;1.00
20463;DHT22;10390;53.566;9.980;2023-04-25T08:30:42;24.30;1.00
20463;DHT22;10390;53.566;9.980;2023-04-25T08:33:07;24.30;1.00
20463;DHT22;10390;53.566;9.980;2023-04-25T08:35:33;24.30;1.00
20463;DHT22;10390;53.566;9.980;2023-04-25T08:37:59;24.30;1.00
20463;DHT22;10390;53.566;9.980;2023-04-25T08:40:27;24.30;1.00
20463;DHT22;10390;53.566;9.980;2023-04-25T08:42:57;24.30;1.00
20463;DHT22;10390;53.566;9.980;2023-04-25T08:45:27;24.30;1.00
20463;DHT22;10390;53.566;9.980;2023-04-25T08:47:54;24.30;1.00
20463;DHT22;10390;53.566;9.980;2023-04-25T08:50:22;24.30;1.00
20463;DHT22;10390;53.566;9.980;2023-04-25T08:52:49;24.30;1.00
20463;DHT22;10390;53.566;9.980;2023-04-25T08:55:18;24.30;1.00
20463;DHT22;10390;53.566;9.980;2023-04-25T08:57:44;24.30;1.00
20463;DHT22;10390;53.566;9.980;2023-04-25T09:00:11;24.30;1.00
20463;DHT22;10390;53.566;9.980;2023-04-25T09:02:39;24.30;1.00
20463;DHT22;10390;53.566;9.980;2023-04-25T09:05:05;24.30;1.00
20463;DHT22;10390;53.566;9.980;2023-04-25T09:07:32;24.30;1.00
20463;DHT22;10390;53.566;9.980;2023-04-25T09:09:58;24.30;1.00
20463;DHT22;10390;53.566;9.980;2023-04-25T09:12:27;24.30;1.00
20463;DHT22;10390;53.566;9.980;2023-04-25T09:15:11;24.30;1.00
20463;DHT22;10390;53.566;9.980;2023-04-25T09:17:37;24.30;1.00
20463;DHT22;10390;53.566;9.980;2023-04-25T09:20:14;24.30;1.00
20463;DHT22;10390;53.566;9.980;2023-04-25T09:22:40;24.30;1.00
20463;DHT22;10390;53.566;9.980;2023-04-25T09:25:13;24.30;1.00
20463;DHT22;10390;53.566;9.980;2023-04-25T09:27:54;24.30;1.00
20463;DHT22;10390;53.566;9.980;2023-04-25T09:30:31;24.30;1.00
20463;DHT22;10390;53.566;9.980;2023-04-25T09:33:04;24.30;1.00
20463;DHT22;10390;53.566;9.980;2023-04-25T09:35:38;24.30;1.00
20463;DHT22;10390;53.566;9.980;2023-04-25T09:38:11;24.30;1.00
20463;DHT22;10390;53.566;9.980;2023-04-25T09:43:18;24.30;1.00
20463;DHT22;10390;53.566;9.980;2023-04-25T09:45:43;24.30;1.00
20463;DHT22;10390;53.566;9.980;2023-04-25T09:48:11;24.30;1.00
20463;DHT22;10390;53.566;9.980;2023-04-25T09:50:37;24.30;1.00
20463;DHT22;10390;53.566;9.980;2023-04-25T09:53:06;24.30;1.00
20463;DHT22;10390;53.566;9.980;2023-04-25T09:55:32;24.30;1.00
20463;DHT22;10390;53.566;9.980;2023-04-25T09:58:04;24.30;1.00
20463;DHT22;10390;53.566;9.980;2023-04-25T10:00:31;24.30;1.00
20463;DHT22;10390;53.566;9.980;2023-04-25T10:03:00;24.30;1.00
20463;DHT22;10390;53.566;9.980;2023-04-25T10:05:27;24.30;1.00
20463;DHT22;10390;53.566;9.980;2023-04-25T10:07:54;24.40;1.00
20463;DHT22;10390;53.566;9.980;2023-04-25T10:10:20;24.40;1.00
20463;DHT22;10390;53.566;9.980;2023-04-25T10:12:51;24.40;1.00
20463;DHT22;10390;53.566;9.980;2023-04-25T10:15:17;24.40;1.00
20463;DHT22;10390;53.566;9.980;2023-04-25T10:17:43;24.40;1.00
20463;DHT22;10390;53.566;9.980;2023-04-25T10:20:09;24.40;1.00
20463;DHT22;10390;53.566;9.980;2023-04-25T10:22:42;24.40;1.00
20463;DHT22;10390;53.566;9.980;2023-04-25T10:25:10;24.40;1.00
20463;DHT22;10390;53.566;9.980;2023-04-25T10:27:36;24.50;1.00
20463;DHT22;10390;53.566;9.980;2023-04-25T10:30:14;24.40;1.00
20463;DHT22;10390;53.566;9.980;2023-04-25T10:32:44;24.40;1.00
20463;DHT22;10390;53.566;9.980;2023-04-25T10:35:18;24.40;1.00
20463;DHT22;10390;53.566;9.980;2023-04-25T10:38:05;24.50;1.00
20463;DHT22;10390;53.566;9.980;2023-04-25T10:40:32;24.50;1.00
20463;DHT22;10390;53.566;9.980;2023-04-25T10:43:33;24.50;1.00
20463;DHT22;10390;53.566;9.980;2023-04-25T10:46:02;24.50;1.00
20463;DHT22;10390;53.566;9.980;2023-04-25T10:48:29;24.50;1.00
20463;DHT22;10390;53.566;9.980;2023-04-25T10:53:34;24.50;1.00
20463;DHT22;10390;53.566;9.980;2023-04-25T10:56:00;24.50;1.00
20463;DHT22;10390;53.566;9.980;2023-04-25T10:58:26;24.50;1.00
20463;DHT22;10390;53.566;9.980;2023-04-25T11:00:52;24.50;1.00
20463;DHT22;10390;53.566;9.980;2023-04-25T11:03:21;24.50;1.00
20463;DHT22;10390;53.566;9.980;2023-04-25T11:05:48;24.50;1.00
20463;DHT22;10390;53.566;9.980;2023-04-25T11:08:22;24.50;1.00
20463;DHT22;10390;53.566;9.980;2023-04-25T11:10:52;24.50;1.00
20463;DHT22;10390;53.566;9.980;2023-04-25T11:13:20;24.50;1.00
20463;DHT22;10390;53.566;9.980;2023-04-25T11:15:51;24.50;1.00
20463;DHT22;10390;53.566;9.980;2023-04-25T11:18:17;24.50;1.00
20463;DHT22;10390;53.566;9.980;2023-04-25T11:20:43;24.50;1.00
20463;DHT22;10390;53.566;9.980;2023-04-25T11:23:09;24.60;1.00
20463;DHT22;10390;53.566;9.980;2023-04-25T11:25:34;24.60;1.00
20463;DHT22;10390;53.566;9.980;2023-04-25T11:28:01;24.60;1.00
20463;DHT22;10390;53.566;9.980;2023-04-25T11:30:28;24.60;1.00
20463;DHT22;10390;53.566;9.980;2023-04-25T11:32:56;24.60;1.00
20463;DHT22;10390;53.566;9.980;2023-04-25T11:35:22;24.60;1.00
20463;DHT22;10390;53.566;9.980;2023-04-25T11:37:49;24.60;1.00
20463;DHT22;10390;53.566;9.980;2023-04-25T11:40:15;24.60;1.00
20463;DHT22;10390;53.566;9.980;2023-04-25T11:42:47;24.60;1.00
20463;DHT22;10390;53.566;9.980;2023-04-25T11:45:13;24.60;1.00
20463;DHT22;10390;53.566;9.980;2023-04-25T11:47:39;24.60;1.00
20463;DHT22;10390;53.566;9.980;2023-04-25T11:50:06;24.60;1.00
20463;DHT22;10390;53.566;9.980;2023-04-25T11:55:05;24.60;1.00
20463;DHT22;10390;53.566;9.980;2023-04-25T11:57:32;24.60;1.00
20463;DHT22;10390;53.566;9.980;2023-04-25T12:00:07;24.60;1.00
20463;DHT22;10390;53.566;9.980;2023-04-25T12:02:35;24.60;1.00
20463;DHT22;10390;53.566;9.980;2023-04-25T12:05:01;24.60;1.00
20463;DHT22;10390;53.566;9.980;2023-04-25T12:07:31;24.60;1.00
20463;DHT22;10390;53.566;9.980;2023-04-25T12:09:57;24.60;1.00
20463;DHT22;10390;53.566;9.980;2023-04-25T12:12:27;24.60;1.00
20463;DHT22;10390;53.566;9.980;2023-04-25T12:14:53;24.60;1.00
20463;DHT22;10390;53.566;9.980;2023-04-25T12:17:20;24.60;1.00
20463;DHT22;10390;53.566;9.980;2023-04-25T12:19:47;24.70;1.00
20463;DHT22;10390;53.566;9.980;2023-04-25T12:22:23;24.70;1.00
20463;DHT22;10390;53.566;9.980;2023-04-25T12:24:49;24.70;1.00
20463;DHT22;10390;53.566;9.980;2023-04-25T12:27:16;24.70;1.00
20463;DHT22;10390;53.566;9.980;2023-04-25T12:29:54;24.60;1.00
20463;DHT22;10390;53.566;9.980;2023-04-25T12:32:20;24.60;1.00
20463;DHT22;10390;53.566;9.980;2023-04-25T12:34:45;24.70;1.00
20463;DHT22;10390;53.566;9.980;2023-04-25T12:37:11;24.60;1.00
20463;DHT22;10390;53.566;9.980;2023-04-25T12:39:37;24.70;1.00
20463;DHT22;10390;53.566;9.980;2023-04-25T12:42:03;24.70;1.00
20463;DHT22;10390;53.566;9.980;2023-04-25T12:44:29;24.70;1.00
20463;DHT22;10390;53.566;9.980;2023-04-25T12:46:54;24.70;1.00
20463;DHT22;10390;53.566;9.980;2023-04-25T12:49:20;24.70;1.00
20463;DHT22;10390;53.566;9.980;2023-04-25T12:51:46;24.60;1.00
20463;DHT22;10390;53.566;9.980;2023-04-25T12:54:12;24.70;1.00
20463;DHT22;10390;53.566;9.980;2023-04-25T12:56:37;24.70;1.00
20463;DHT22;10390;53.566;9.980;2023-04-25T12:59:03;24.70;1.00
20463;DHT22;10390;53.566;9.980;2023-04-25T13:01:29;24.60;1.00
20463;DHT22;10390;53.566;9.980;2023-04-25T13:03:55;24.70;1.00
20463;DHT22;10390;53.566;9.980;2023-04-25T13:06:21;24.70;1.00
20463;DHT22;10390;53.566;9.980;2023-04-25T13:08:47;24.70;1.00
20463;DHT22;10390;53.566;9.980;2023-04-25T13:11:13;24.70;1.00
20463;DHT22;10390;53.566;9.980;2023-04-25T13:13:40;24.70;1.00
20463;DHT22;10390;53.566;9.980;2023-04-25T13:16:06;24.70;1.00
20463;DHT22;10390;53.566;9.980;2023-04-25T13:18:33;24.70;1.00
20463;DHT22;10390;53.566;9.980;2023-04-25T13:20:59;24.70;1.00
20463;DHT22;10390;53.566;9.980;2023-04-25T13:23:27;24.70;1.00
20463;DHT22;10390;53.566;9.980;2023-04-25T13:25:53;24.70;1.00
20463;DHT22;10390;53.566;9.980;2023-04-25T13:28:19;24.70;1.00
20463;DHT22;10390;53.566;9.980;2023-04-25T13:30:44;24.70;1.00
20463;DHT22;10390;53.566;9.980;2023-04-25T13:33:11;24.70;1.00
20463;DHT22;10390;53.566;9.980;2023-04-25T13:35:38;24.70;1.00
20463;DHT22;10390;53.566;9.980;2023-04-25T13:38:04;24.70;1.00
20463;DHT22;10390;53.566;9.980;2023-04-25T13:40:30;24.60;1.00
20463;DHT22;10390;53.566;9.980;2023-04-25T13:42:55;24.70;1.00
20463;DHT22;10390;53.566;9.980;2023-04-25T13:45:21;24.70;1.00
20463;DHT22;10390;53.566;9.980;2023-04-25T13:47:47;24.70;1.00
20463;DHT22;10390;53.566;9.980;2023-04-25T13:50:13;24.60;1.00
20463;DHT22;10390;53.566;9.980;2023-04-25T13:52:39;24.70;1.00
20463;DHT22;10390;53.566;9.980;2023-04-25T13:55:06;24.70;1.00
20463;DHT22;10390;53.566;9.980;2023-04-25T13:57:33;24.60;1.00
20463;DHT22;10390;53.566;9.980;2023-04-25T13:59:59;24.60;1.00
20463;DHT22;10390;53.566;9.980;2023-04-25T14:02:25;24.60;1.00
20463;DHT22;10390;53.566;9.980;2023-04-25T14:04:51;24.60;1.00
20463;DHT22;10390;53.566;9.980;2023-04-25T14:07:16;24.70;1.00
20463;DHT22;10390;53.566;9.980;2023-04-25T14:09:43;24.60;1.00
20463;DHT22;10390;53.566;9.980;2023-04-25T14:12:09;24.70;1.00
20463;DHT22;10390;53.566;9.980;2023-04-25T14:14:36;24.70;1.00
20463;DHT22;10390;53.566;9.980;2023-04-25T14:17:03;24.70;1.00
20463;DHT22;10390;53.566;9.980;2023-04-25T14:19:29;24.60;1.00
20463;DHT22;10390;53.566;9.980;2023-04-25T14:21:54;24.70;1.00
20463;DHT22;10390;53.566;9.980;2023-04-25T14:24:20;24.60;1.00
20463;DHT22;10390;53.566;9.980;2023-04-25T14:26:46;24.60;1.00
20463;DHT22;10390;53.566;9.980;2023-04-25T14:29:12;24.60;1.00
20463;DHT22;10390;53.566;9.980;2023-04-25T14:31:38;24.70;1.00
20463;DHT22;10390;53.566;9.980;2023-04-25T14:34:05;24.60;1.00
20463;DHT22;10390;53.566;9.980;2023-04-25T14:36:31;24.70;1.00
20463;DHT22;10390;53.566;9.980;2023-04-25T14:38:57;24.70;1.00
20463;DHT22;10390;53.566;9.980;2023-04-25T14:41:24;24.60;1.00
20463;DHT22;10390;53.566;9.980;2023-04-25T14:43:51;24.70;1.00
20463;DHT22;10390;53.566;9.980;2023-04-25T14:46:18;24.60;1.00
20463;DHT22;10390;53.566;9.980;2023-04-25T14:48:44;24.60;1.00
20463;DHT22;10390;53.566;9.980;2023-04-25T14:51:10;24.60;1.00
20463;DHT22;10390;53.566;9.980;2023-04-25T14:53:36;24.70;1.00
20463;DHT22;10390;53.566;9.980;2023-04-25T14:56:02;24.60;1.00
20463;DHT22;10390;53.566;9.980;2023-04-25T14:58:27;24.70;1.00
20463;DHT22;10390;53.566;9.980;2023-04-25T15:00:53;24.70;1.00
20463;DHT22;10390;53.566;9.980;2023-04-25T15:03:19;24.70;1.00
20463;DHT22;10390;53.566;9.980;2023-04-25T15:05:44;24.70;1.00
20463;DHT22;10390;53.566;9.980;2023-04-25T15:08:10;24.70;1.00
20463;DHT22;10390;53.566;9.980;2023-04-25T15:10:36;24.60;1.00
20463;DHT22;10390;53.566;9.980;2023-04-25T15:13:01;24.70;1.00
20463;DHT22;10390;53.566;9.980;2023-04-25T15:15:28;24.70;1.00
20463;DHT22;10390;53.566;9.980;2023-04-25T15:17:53;24.60;1.00
20463;DHT22;10390;53.566;9.980;2023-04-25T15:20:20;24.70;1.00
20463;DHT22;10390;53.566;9.980;2023-04-25T15:22:46;24.70;1.00
20463;DHT22;10390;53.566;9.980;2023-04-25T15:25:15;24.70;1.00
20463;DHT22;10390;53.566;9.980;2023-04-25T15:27:43;24.70;1.00
20463;DHT22;10390;53.566;9.980;2023-04-25T15:30:14;24.70;1.00
20463;DHT22;10390;53.566;9.980;2023-04-25T15:32:44;24.70;1.00
20463;DHT22;10390;53.566;9.980;2023-04-25T15:35:10;24.70;1.00
20463;DHT22;10390;53.566;9.980;2023-04-25T15:37:36;24.70;1.00
20463;DHT22;10390;53.566;9.980;2023-04-25T15:42:38;24.60;1.00
20463;DHT22;10390;53.566;9.980;2023-04-25T15:45:06;24.60;1.00
20463;DHT22;10390;53.566;9.980;2023-04-25T15:47:33;24.60;1.00
20463;DHT22;10390;53.566;9.980;2023-04-25T15:49:59;24.60;1.00
20463;DHT22;10390;53.566;9.980;2023-04-25T15:52:25;24.60;1.00